createdAt,value
2022-12-08T00:01:25.795Z,98256.97
2022-12-08T00:03:52.410Z,98255.19
2022-12-08T00:06:45.796Z,98246.66
2022-12-08T00:09:24.183Z,98241.66
2022-12-08T00:11:59.196Z,98254.28
2022-12-08T00:14:34.454Z,98253.22
2022-12-08T00:17:01.349Z,98243.09
2022-12-08T00:19:28.238Z,98239.63
2022-12-08T00:21:55.545Z,98231.34
2022-12-08T00:24:24.380Z,98239.38
2022-12-08T00:26:51.134Z,98230.28
2022-12-08T00:29:18.404Z,98230.03
2022-12-08T00:31:45.042Z,98228.44
2022-12-08T00:34:15.318Z,98226.00
2022-12-08T00:36:42.211Z,98226.47
2022-12-08T00:39:08.891Z,98216.28
2022-12-08T00:41:53.778Z,98216.00
2022-12-08T00:44:21.356Z,98219.38
2022-12-08T00:47:01.066Z,98211.03
2022-12-08T00:49:38.638Z,98223.03
2022-12-08T00:52:13.725Z,98221.09
2022-12-08T00:55:09.389Z,98215.34
2022-12-08T00:57:37.162Z,98219.50
2022-12-08T01:00:14.767Z,98221.53
2022-12-08T01:02:57.470Z,98213.88
2022-12-08T01:05:30.717Z,98219.16
2022-12-08T01:08:02.045Z,98219.56
2022-12-08T01:10:41.450Z,98207.72
2022-12-08T01:13:19.493Z,98208.69
2022-12-08T01:15:55.801Z,98208.84
2022-12-08T01:18:31.930Z,98212.22
2022-12-08T01:21:14.275Z,98213.88
2022-12-08T01:23:51.034Z,98215.94
2022-12-08T01:26:26.157Z,98222.03
2022-12-08T01:29:02.610Z,98223.78
2022-12-08T01:31:32.932Z,98229.38
2022-12-08T01:34:08.853Z,98232.25
2022-12-08T01:36:44.123Z,98229.84
2022-12-08T01:39:29.260Z,98229.28
2022-12-08T01:41:57.065Z,98225.00
2022-12-08T01:44:23.380Z,98217.69
2022-12-08T01:46:50.085Z,98222.47
2022-12-08T01:49:28.115Z,98210.88
2022-12-08T01:52:04.787Z,98211.34
2022-12-08T01:54:39.873Z,98207.31
2022-12-08T01:57:11.921Z,98200.59
2022-12-08T01:59:43.773Z,98197.13
2022-12-08T02:02:12.130Z,98202.66
2022-12-08T02:04:38.964Z,98192.50
2022-12-08T02:07:08.467Z,98197.47
2022-12-08T02:09:36.522Z,98189.16
2022-12-08T02:12:03.052Z,98186.72
2022-12-08T02:14:29.578Z,98187.19
2022-12-08T02:17:20.145Z,98179.44
2022-12-08T02:20:01.073Z,98178.63
2022-12-08T02:22:46.550Z,98177.00
2022-12-08T02:25:28.057Z,98176.66
2022-12-08T02:28:09.460Z,98168.91
2022-12-08T02:31:16.722Z,98167.28
2022-12-08T02:33:53.242Z,98173.06
2022-12-08T02:36:29.274Z,98166.13
2022-12-08T02:39:08.781Z,98155.94
2022-12-08T02:41:59.610Z,98159.06
2022-12-08T02:44:39.490Z,98172.41
2022-12-08T02:47:11.760Z,98162.78
2022-12-08T02:49:38.191Z,98167.56
2022-12-08T02:52:13.458Z,98159.00
2022-12-08T02:55:05.781Z,98162.72
2022-12-08T02:57:59.585Z,98157.59
2022-12-08T03:00:31.586Z,98154.13
2022-12-08T03:03:32.896Z,98163.16
2022-12-08T03:06:30.253Z,98155.41
2022-12-08T03:09:10.424Z,98153.00
2022-12-08T03:11:44.368Z,98157.16
2022-12-08T03:14:16.146Z,98155.53
2022-12-08T03:16:47.481Z,98141.66
2022-12-08T03:19:19.976Z,98144.31
2022-12-08T03:22:02.689Z,98142.66
2022-12-08T03:24:37.895Z,98139.94
2022-12-08T03:27:10.051Z,98136.09
2022-12-08T03:29:36.898Z,98133.69
2022-12-08T03:32:21.245Z,98130.19
2022-12-08T03:34:49.804Z,98121.41
2022-12-08T03:37:16.740Z,98123.25
2022-12-08T03:39:43.633Z,98123.25
2022-12-08T03:42:10.031Z,98123.25
2022-12-08T03:44:36.421Z,98128.00
2022-12-08T03:47:02.866Z,98126.38
2022-12-08T03:49:29.302Z,98122.66
2022-12-08T03:51:55.734Z,98120.25
2022-12-08T03:54:22.174Z,98121.28
2022-12-08T03:56:48.553Z,98112.50
2022-12-08T03:59:14.991Z,98108.22
2022-12-08T04:01:41.373Z,98103.69
2022-12-08T04:04:07.855Z,98107.16
2022-12-08T04:06:34.286Z,98102.31
2022-12-08T04:09:00.754Z,98093.72
2022-12-08T04:11:27.167Z,98101.16
2022-12-08T04:13:53.601Z,98097.94
2022-12-08T04:16:25.258Z,98101.41
2022-12-08T04:18:56.038Z,98097.31
2022-12-08T04:21:29.424Z,98093.84
2022-12-08T04:24:03.009Z,98094.66
2022-12-08T04:26:33.913Z,98087.41
2022-12-08T04:29:15.314Z,98093.53
2022-12-08T04:31:43.137Z,98084.94
2022-12-08T04:34:16.450Z,98091.09
2022-12-08T04:36:44.515Z,98095.84
2022-12-08T04:39:12.121Z,98101.66
2022-12-08T04:41:49.986Z,98098.19
2022-12-08T04:44:21.585Z,98093.66
2022-12-08T04:46:53.701Z,98086.47
2022-12-08T04:49:26.580Z,98087.53
2022-12-08T04:51:58.954Z,98081.03
2022-12-08T04:54:29.360Z,98081.28
2022-12-08T04:57:06.195Z,98068.78
2022-12-08T04:59:50.340Z,98078.63
2022-12-08T05:02:17.802Z,98070.88
2022-12-08T05:05:00.737Z,98072.94
2022-12-08T05:07:37.979Z,98069.22
2022-12-08T05:10:21.403Z,98071.69
2022-12-08T05:12:53.636Z,98063.09
2022-12-08T05:18:52.294Z,98065.44
2022-12-08T05:21:18.676Z,98065.19
2022-12-08T05:23:45.118Z,98062.75
2022-12-08T05:26:11.488Z,98058.38
2022-12-08T05:28:42.612Z,98060.94
2022-12-08T05:33:51.184Z,98068.59
2022-12-08T05:36:18.922Z,98065.56
2022-12-08T05:38:46.201Z,98080.41
2022-12-08T05:41:18.627Z,98068.09
2022-12-08T05:43:45.203Z,98071.59
2022-12-08T05:46:12.004Z,98074.72
2022-12-08T05:48:39.114Z,98071.50
2022-12-08T05:51:09.519Z,98074.38
2022-12-08T05:53:35.958Z,98075.19
2022-12-08T05:56:02.359Z,98071.72
2022-12-08T05:58:28.897Z,98060.47
2022-12-08T06:00:55.258Z,98066.03
2022-12-08T06:03:21.796Z,98067.41
2022-12-08T06:05:48.503Z,98066.97
2022-12-08T06:08:16.219Z,98068.59
2022-12-08T06:10:44.349Z,98071.25
2022-12-08T06:13:10.786Z,98063.75
2022-12-08T06:15:37.967Z,98070.69
2022-12-08T06:18:05.628Z,98059.44
2022-12-08T06:20:32.220Z,98057.25
2022-12-08T06:22:58.640Z,98053.53
2022-12-08T06:25:25.640Z,98064.44
2022-12-08T06:27:52.263Z,98058.53
2022-12-08T06:30:18.743Z,98059.78
2022-12-08T06:32:45.138Z,98067.22
2022-12-08T06:35:11.562Z,98067.22
2022-12-08T06:37:37.999Z,98063.97
2022-12-08T06:40:04.965Z,98069.88
2022-12-08T06:42:43.744Z,98065.59
2022-12-08T06:45:12.044Z,98063.38
2022-12-08T06:47:38.429Z,98076.25
2022-12-08T06:50:06.558Z,98070.09
2022-12-08T06:52:33.282Z,98070.56
2022-12-08T06:55:01.106Z,98072.41
2022-12-08T06:57:27.560Z,98072.66
2022-12-08T06:59:54.010Z,98074.72
2022-12-08T07:02:20.486Z,98077.59
2022-12-08T07:04:47.015Z,98072.75
2022-12-08T07:07:13.445Z,98074.03
2022-12-08T07:09:41.183Z,98077.50
2022-12-08T07:12:07.849Z,98075.09
2022-12-08T07:14:34.328Z,98081.09
2022-12-08T07:17:02.199Z,98080.28
2022-12-08T07:19:28.619Z,98072.06
2022-12-08T07:21:55.090Z,98076.09
2022-12-08T07:24:21.684Z,98075.09
2022-12-08T07:26:48.097Z,98078.56
2022-12-08T07:29:14.509Z,98081.78
2022-12-08T07:31:41.006Z,98080.25
2022-12-08T07:34:07.572Z,98077.59
2022-12-08T07:36:34.035Z,98076.59
2022-12-08T07:39:00.607Z,98077.59
2022-12-08T07:41:27.106Z,98082.13
2022-12-08T07:43:53.941Z,98082.00
2022-12-08T07:46:22.660Z,98079.94
2022-12-08T07:48:49.295Z,98074.16
2022-12-08T07:51:16.695Z,98081.09
2022-12-08T07:53:50.027Z,98077.72
2022-12-08T07:56:19.828Z,98080.16
2022-12-08T07:58:46.829Z,98070.91
2022-12-08T08:01:24.211Z,98068.59
2022-12-08T08:03:50.880Z,98064.88
2022-12-08T08:06:17.331Z,98062.34
2022-12-08T08:08:43.733Z,98050.63
2022-12-08T08:11:19.006Z,98067.19
2022-12-08T08:13:47.807Z,98063.34
2022-12-08T08:16:14.262Z,98048.78
2022-12-08T08:18:41.058Z,98054.22
2022-12-08T08:21:43.213Z,98050.03
2022-12-08T08:23:54.280Z,98059.72
2022-12-08T08:26:20.673Z,98058.78
2022-12-08T08:28:48.212Z,98057.50
2022-12-08T08:31:14.775Z,98058.91
2022-12-08T08:33:41.407Z,98049.75
2022-12-08T08:36:09.274Z,98054.63
2022-12-08T08:38:39.327Z,98058.31
2022-12-08T08:41:11.895Z,98062.13
2022-12-08T08:43:39.044Z,98054.94
2022-12-08T08:46:08.936Z,98062.25
2022-12-08T08:48:36.182Z,98062.56
2022-12-08T08:51:10.548Z,98060.56
2022-12-08T08:53:37.174Z,98057.78
2022-12-08T08:56:05.209Z,98060.28
2022-12-08T08:58:31.663Z,98061.22
2022-12-08T09:00:58.220Z,98055.97
2022-12-08T09:03:24.669Z,98053.97
2022-12-08T09:05:51.427Z,98048.16
2022-12-08T09:08:18.782Z,98054.06
2022-12-08T09:10:45.502Z,98050.91
2022-12-08T09:13:11.950Z,98043.00
2022-12-08T09:15:38.754Z,98048.19
2022-12-08T09:18:06.841Z,98042.94
2022-12-08T09:20:34.988Z,98042.78
2022-12-08T09:23:01.857Z,98041.25
2022-12-08T09:25:28.649Z,98035.50
2022-12-08T09:27:55.062Z,98028.56
2022-12-08T09:30:21.705Z,98032.13
2022-12-08T09:32:48.127Z,98033.25
2022-12-08T09:35:14.593Z,98033.91
2022-12-08T09:37:41.109Z,98035.34
2022-12-08T09:40:08.463Z,98030.66
2022-12-08T09:42:49.813Z,98035.59
2022-12-08T09:45:17.776Z,98029.91
2022-12-08T09:48:07.951Z,98020.47
2022-12-08T09:50:40.428Z,98017.38
2022-12-08T09:53:19.778Z,98015.94
2022-12-08T09:56:22.722Z,98018.75
2022-12-08T09:59:00.030Z,98010.38
2022-12-08T10:01:32.982Z,98014.00
2022-12-08T10:04:00.945Z,98005.28
2022-12-08T10:06:41.478Z,98007.00
2022-12-08T10:10:04.449Z,98009.81
2022-12-08T10:12:40.564Z,98003.78
2022-12-08T10:15:35.082Z,97997.75
2022-12-08T10:18:08.195Z,97992.41
2022-12-08T10:20:41.296Z,97988.16
2022-12-08T10:23:10.383Z,97994.66
2022-12-08T10:25:44.356Z,97991.03
2022-12-08T10:28:11.294Z,97983.63
2022-12-08T10:30:37.705Z,97973.53
2022-12-08T10:33:04.362Z,97978.94
2022-12-08T10:35:52.037Z,97975.28
2022-12-08T10:38:22.452Z,97976.97
2022-12-08T10:40:51.775Z,97968.44
2022-12-08T10:43:22.858Z,97968.22
2022-12-08T10:45:49.941Z,97969.84
2022-12-08T10:48:23.016Z,97964.75
2022-12-08T10:50:52.378Z,97962.88
2022-12-08T10:53:30.559Z,97960.41
2022-12-08T10:56:02.994Z,97951.75
2022-12-08T10:58:41.110Z,97950.06
2022-12-08T11:01:26.572Z,97951.00
2022-12-08T11:03:53.027Z,97942.44
2022-12-08T11:06:37.941Z,97936.69
2022-12-08T11:09:21.935Z,97927.09
2022-12-08T11:11:59.598Z,97924.41
2022-12-08T11:14:32.290Z,97922.59
2022-12-08T11:17:23.353Z,97919.91
2022-12-08T11:20:10.198Z,97911.03
2022-12-08T11:22:39.747Z,97907.22
2022-12-08T11:25:39.199Z,97906.16
2022-12-08T11:28:10.210Z,97909.44
2022-12-08T11:30:47.887Z,97900.88
2022-12-08T11:33:23.655Z,97888.25
2022-12-08T11:35:57.764Z,97894.72
2022-12-08T11:38:27.422Z,97897.66
2022-12-08T11:40:59.474Z,97892.28
2022-12-08T11:43:44.276Z,97894.69
2022-12-08T11:46:24.015Z,97895.47
2022-12-08T11:49:05.566Z,97889.28
2022-12-08T11:51:40.525Z,97887.66
2022-12-08T11:54:39.643Z,97883.13
2022-12-08T11:57:12.768Z,97882.06
2022-12-08T11:59:50.778Z,97885.81
2022-12-08T12:02:19.750Z,97882.28
2022-12-08T12:04:54.068Z,97880.97
2022-12-08T12:07:41.895Z,97879.91
2022-12-08T12:10:16.170Z,97881.00
2022-12-08T12:12:45.743Z,97882.59
2022-12-08T12:15:24.341Z,97879.63
2022-12-08T12:17:50.891Z,97866.50
2022-12-08T12:20:24.254Z,97871.84
2022-12-08T12:22:58.695Z,97868.63
2022-12-08T12:25:26.832Z,97863.84
2022-12-08T12:27:59.293Z,97857.13
2022-12-08T12:30:27.981Z,97865.47
2022-12-08T12:33:00.346Z,97862.78
2022-12-08T12:35:37.989Z,97854.72
2022-12-08T12:38:33.803Z,97856.59
2022-12-08T12:41:02.611Z,97853.66
2022-12-08T12:43:33.613Z,97841.06
2022-12-08T12:46:50.656Z,97837.81
2022-12-08T12:49:55.878Z,97840.50
2022-12-08T12:52:22.294Z,97828.97
2022-12-08T12:54:51.739Z,97830.59
2022-12-08T12:57:18.359Z,97828.16
2022-12-08T13:00:08.640Z,97832.19
2022-12-08T13:02:45.791Z,97820.66
2022-12-08T13:05:35.447Z,97822.25
2022-12-08T13:08:06.991Z,97828.69
2022-12-08T13:10:39.757Z,97816.66
2022-12-08T13:13:18.528Z,97807.00
2022-12-08T13:16:07.621Z,97823.31
2022-12-08T13:18:59.559Z,97818.78
2022-12-08T13:21:34.997Z,97820.38
2022-12-08T13:24:12.718Z,97820.91
2022-12-08T13:27:14.710Z,97825.19
2022-12-08T13:29:41.496Z,97819.28
2022-12-08T13:32:07.988Z,97821.44
2022-12-08T13:34:55.066Z,97817.94
2022-12-08T13:37:42.181Z,97819.28
2022-12-08T13:40:20.821Z,97810.72
2022-12-08T13:43:18.165Z,97815.25
2022-12-08T13:57:29.785Z,97810.16
2022-12-08T14:00:29.593Z,97803.19
2022-12-08T14:02:58.707Z,97807.97
2022-12-08T14:05:48.056Z,97807.44
2022-12-08T14:08:58.927Z,97807.44
2022-12-08T14:11:37.608Z,97814.41
2022-12-08T14:14:45.857Z,97809.59
2022-12-08T14:17:11.710Z,97808.00
2022-12-08T14:19:38.487Z,97811.72
2022-12-08T14:22:17.069Z,97809.31
2022-12-08T14:24:51.748Z,97811.19
2022-12-08T14:27:26.921Z,97804.50
2022-12-08T14:29:57.040Z,97803.69
2022-12-08T14:32:27.606Z,97807.44
2022-12-08T14:34:56.109Z,97813.03
2022-12-08T14:37:25.001Z,97811.16
2022-12-08T14:39:52.473Z,97814.63
2022-12-08T14:42:24.890Z,97811.69
2022-12-08T14:45:09.437Z,97814.66
2022-12-08T14:47:36.006Z,97821.31
2022-12-08T14:50:04.935Z,97813.56
2022-12-08T14:52:32.061Z,97811.13
2022-12-08T14:54:58.861Z,97807.94
2022-12-08T14:57:33.578Z,97813.53
2022-12-08T15:00:08.257Z,97812.19
2022-12-08T15:02:44.009Z,97805.22
2022-12-08T15:05:15.940Z,97818.63
2022-12-08T15:07:51.972Z,97812.72
2022-12-08T15:10:23.175Z,97814.34
2022-12-08T15:13:20.838Z,97809.78
2022-12-08T15:15:54.277Z,97809.78
2022-12-08T15:18:42.341Z,97806.56
2022-12-08T15:21:12.701Z,97806.00
2022-12-08T15:23:42.618Z,97807.06
2022-12-08T15:26:10.242Z,97804.66
2022-12-08T15:28:36.833Z,97808.41
2022-12-08T15:31:03.378Z,97806.81
2022-12-08T15:33:29.987Z,97812.41
2022-12-08T15:35:56.481Z,97808.91
2022-12-08T15:38:28.866Z,97803.56
2022-12-08T15:40:57.499Z,97803.84
2022-12-08T15:43:24.453Z,97801.16
2022-12-08T15:45:58.922Z,97804.63
2022-12-08T15:48:28.411Z,97800.34
2022-12-08T15:50:56.251Z,97810.00
2022-12-08T15:53:22.841Z,97801.97
2022-12-08T15:56:18.911Z,97807.31
2022-12-08T15:58:54.712Z,97795.53
2022-12-08T16:01:22.673Z,97799.25
2022-12-08T16:09:43.453Z,97789.09
2022-12-08T16:13:54.742Z,97792.84
2022-12-08T16:15:53.040Z,97789.88
2022-12-08T16:18:28.239Z,97786.41
2022-12-08T16:21:23.852Z,97781.06
2022-12-08T16:23:43.755Z,97784.53
2022-12-08T16:26:31.800Z,97780.53
2022-12-08T16:29:04.857Z,97781.56
2022-12-08T16:31:31.799Z,97780.75
2022-12-08T16:33:58.384Z,97780.22
2022-12-08T16:36:24.907Z,97779.41
2022-12-08T16:38:51.490Z,97775.94
2022-12-08T16:41:37.115Z,97776.47
2022-12-08T16:44:05.481Z,97772.47
2022-12-08T16:46:32.409Z,97771.94
2022-12-08T16:48:59.216Z,97771.13
2022-12-08T16:51:27.216Z,97770.56
2022-12-08T16:53:55.408Z,97761.72
2022-12-08T16:56:25.134Z,97758.53
2022-12-08T16:58:55.591Z,97762.81
2022-12-08T17:01:23.583Z,97770.28
2022-12-08T17:04:14.453Z,97771.91
2022-12-08T17:06:36.633Z,97776.44
2022-12-08T17:09:03.275Z,97778.84
2022-12-08T17:11:37.453Z,97762.25
2022-12-08T17:14:09.120Z,97768.69
2022-12-08T17:16:35.841Z,97770.53
2022-12-08T17:19:02.496Z,97763.84
2022-12-08T17:21:28.992Z,97769.19
2022-12-08T17:23:55.543Z,97762.25
2022-12-08T17:26:22.036Z,97763.84
2022-12-08T17:29:03.777Z,97770.00
2022-12-08T17:31:32.451Z,97765.97
2022-12-08T17:34:03.755Z,97770.53
2022-12-08T17:36:30.846Z,97769.72
2022-12-08T17:39:00.407Z,97776.16
2022-12-08T17:41:27.214Z,97779.63
2022-12-08T17:43:53.697Z,97778.81
2022-12-08T17:46:21.108Z,97778.00
2022-12-08T17:48:47.782Z,97778.81
2022-12-08T17:51:14.948Z,97775.59
2022-12-08T17:53:41.757Z,97769.44
2022-12-08T17:56:19.109Z,97765.41
2022-12-08T17:58:49.849Z,97766.47
2022-12-08T18:01:20.773Z,97768.09
2022-12-08T18:03:47.252Z,97772.88
2022-12-08T18:06:13.732Z,97784.41
2022-12-08T18:08:40.454Z,97779.28
2022-12-08T18:11:14.998Z,97785.44
2022-12-08T18:13:41.921Z,97783.03
2022-12-08T18:16:08.382Z,97792.13
2022-12-08T18:18:34.826Z,97785.72
2022-12-08T18:21:01.256Z,97787.84
2022-12-08T18:23:28.000Z,97780.63
2022-12-08T18:25:54.440Z,97779.81
2022-12-08T18:28:20.944Z,97777.16
2022-12-08T18:30:48.571Z,97772.31
2022-12-08T18:33:15.018Z,97763.75
2022-12-08T18:35:41.691Z,97771.22
2022-12-08T18:38:08.218Z,97780.31
2022-12-08T18:40:34.640Z,97774.16
2022-12-08T18:43:01.079Z,97768.50
2022-12-08T18:45:27.527Z,97775.19
2022-12-08T18:47:54.098Z,97769.53
2022-12-08T18:50:20.583Z,97759.88
2022-12-08T18:52:47.073Z,97756.38
2022-12-08T18:55:14.475Z,97762.50
2022-12-08T18:57:43.131Z,97764.63
2022-12-08T19:00:12.742Z,97766.22
2022-12-08T19:02:39.560Z,97760.84
2022-12-08T19:05:07.958Z,97756.59
2022-12-08T19:07:34.724Z,97751.72
2022-12-08T19:10:01.227Z,97751.19
2022-12-08T19:12:27.672Z,97747.41
2022-12-08T19:14:54.193Z,97753.53
2022-12-08T19:17:21.126Z,97758.59
2022-12-08T19:19:47.616Z,97752.16
2022-12-08T19:22:14.159Z,97752.66
2022-12-08T19:24:40.675Z,97751.56
2022-12-08T19:27:07.282Z,97749.44
2022-12-08T19:29:34.208Z,97752.59
2022-12-08T19:32:01.065Z,97741.63
2022-12-08T19:34:28.157Z,97746.13
2022-12-08T19:36:54.993Z,97748.25
2022-12-08T19:39:42.559Z,97744.47
2022-12-08T19:42:49.904Z,97750.59
2022-12-08T19:45:20.997Z,97752.41
2022-12-08T19:47:48.509Z,97745.16
2022-12-08T19:50:35.322Z,97746.75
2022-12-08T19:53:04.143Z,97742.16
2022-12-08T19:55:31.190Z,97749.63
2022-12-08T19:57:58.584Z,97737.81
2022-12-08T20:00:25.595Z,97733.22
2022-12-08T20:02:52.522Z,97733.22
2022-12-08T20:05:19.523Z,97729.69
2022-12-08T20:07:46.195Z,97730.16
2022-12-08T20:10:20.189Z,97729.34
2022-12-08T20:12:46.913Z,97728.28
2022-12-08T20:15:15.048Z,97727.94
2022-12-08T20:17:42.625Z,97741.81
2022-12-08T20:20:12.119Z,97737.75
2022-12-08T20:22:38.897Z,97742.56
2022-12-08T20:25:06.155Z,97745.47
2022-12-08T20:27:33.499Z,97744.34
2022-12-08T20:30:00.278Z,97742.75
2022-12-08T20:32:27.099Z,97738.41
2022-12-08T20:34:53.941Z,97737.53
2022-12-08T20:37:20.610Z,97739.66
2022-12-08T20:39:47.148Z,97738.00
2022-12-08T20:42:14.147Z,97733.47
2022-12-08T20:44:44.657Z,97736.63
2022-12-08T20:47:12.689Z,97744.06
2022-12-08T20:49:39.669Z,97740.03
2022-12-08T20:52:06.667Z,97740.59
2022-12-08T20:54:33.825Z,97738.19
2022-12-08T20:57:01.699Z,97736.56
2022-12-08T20:59:28.594Z,97737.09
2022-12-08T21:01:55.856Z,97739.16
2022-12-08T21:04:23.378Z,97742.91
2022-12-08T21:06:50.288Z,97736.94
2022-12-08T21:09:17.297Z,97735.81
2022-12-08T21:11:44.783Z,97746.97
2022-12-08T21:14:11.451Z,97741.66
2022-12-08T21:16:38.309Z,97736.81
2022-12-08T21:19:06.233Z,97742.38
2022-12-08T21:21:33.044Z,97733.28
2022-12-08T21:23:59.716Z,97738.28
2022-12-08T21:26:26.523Z,97734.00
2022-12-08T21:28:56.489Z,97735.06
2022-12-08T21:31:23.565Z,97733.94
2022-12-08T21:33:50.207Z,97729.41
2022-12-08T21:36:20.703Z,97727.00
2022-12-08T21:42:13.051Z,97730.66
2022-12-08T21:44:56.030Z,97724.47
2022-12-08T21:58:35.396Z,97727.78
2022-12-08T22:01:24.100Z,97733.38
2022-12-08T22:04:10.178Z,97733.63
2022-12-08T22:06:49.736Z,97727.22
2022-12-08T22:09:21.576Z,97732.00
2022-12-08T22:15:49.711Z,97727.56
2022-12-08T22:35:15.884Z,97724.09
2022-12-08T22:50:35.346Z,97725.97
2022-12-08T22:53:01.774Z,97714.50
2022-12-08T22:55:28.148Z,97716.63
2022-12-08T22:57:54.987Z,97715.47
2022-12-08T23:00:21.726Z,97713.88
2022-12-08T23:02:48.365Z,97717.59
2022-12-08T23:07:42.942Z,97707.44
2022-12-08T23:10:11.030Z,97703.38
2022-12-08T23:12:37.867Z,97702.81
2022-12-08T23:15:04.857Z,97699.03
2022-12-08T23:17:31.423Z,97691.28
2022-12-08T23:19:58.069Z,97686.47
2022-12-08T23:22:24.528Z,97699.19
2022-12-08T23:24:50.919Z,97693.88
2022-12-08T23:27:17.841Z,97684.81
2022-12-08T23:29:44.307Z,97685.88
2022-12-08T23:32:11.220Z,97683.72
2022-12-08T23:34:37.968Z,97681.31
2022-12-08T23:37:04.478Z,97677.25
2022-12-08T23:39:30.842Z,97670.56
2022-12-08T23:41:57.407Z,97671.03
2022-12-08T23:44:23.951Z,97673.38
2022-12-08T23:46:50.855Z,97661.13
2022-12-08T23:49:17.722Z,97658.72
2022-12-08T23:51:44.159Z,97664.84
2022-12-08T23:54:10.711Z,97663.25
2022-12-08T23:56:37.110Z,97660.00
2022-12-08T23:59:04.153Z,97653.06
